Time;durP1;ratioP1;P1;durP2;ratioP2;P2;SDS_P1;SDS_P2;PMS_P1;PMS_P2;Temp;Humidity;BMP_temperature;BMP_pressure;BME280_temperature;BME280_humidity;BME280_pressure;Samples;Min_cycle;Max_cycle;Signal;HPM_P1;HPM_P2
2022/10/17 00:01:42;;;;;;;15.32;5.38;;;12.40;99.90;;;;;;5033343;28;20236;-78
2022/10/17 00:04:08;;;;;;;33.92;5.88;;;12.40;99.90;;;;;;5034210;28;20186;-78
2022/10/17 00:06:33;;;;;;;29.25;5.70;;;12.50;99.90;;;;;;5032491;28;20708;-78
2022/10/17 00:08:59;;;;;;;54.40;5.60;;;12.50;99.90;;;;;;5033783;28;20171;-78
2022/10/17 00:11:24;;;;;;;22.65;5.13;;;12.40;99.90;;;;;;5032904;28;20186;-78
2022/10/17 00:13:53;;;;;;;26.60;5.15;;;12.40;99.90;;;;;;5033051;28;20171;-78
2022/10/17 00:16:33;;;;;;;44.70;4.65;;;12.30;99.90;;;;;;5032856;28;20202;-78
2022/10/17 00:19:15;;;;;;;26.10;4.22;;;12.30;99.90;;;;;;5033456;28;20222;-78
2022/10/17 00:21:40;;;;;;;12.20;4.45;;;12.40;99.90;;;;;;5032825;28;20201;-78
2022/10/17 00:24:06;;;;;;;21.42;4.32;;;12.40;99.90;;;;;;5033017;28;20206;-78
2022/10/17 00:26:31;;;;;;;34.03;4.82;;;12.40;99.90;;;;;;5032489;28;20195;-78
2022/10/17 00:28:57;;;;;;;19.42;4.85;;;12.30;99.90;;;;;;5032605;28;20208;-78
2022/10/17 00:31:23;;;;;;;18.20;5.00;;;12.20;99.90;;;;;;5034800;28;20213;-78
2022/10/17 00:33:50;;;;;;;14.38;5.03;;;12.20;99.90;;;;;;5032929;28;20182;-78
2022/10/17 00:36:21;;;;;;;37.95;5.28;;;12.10;99.90;;;;;;5033915;28;20205;-78
2022/10/17 00:38:51;;;;;;;12.90;4.53;;;12.20;99.90;;;;;;5032789;28;20175;-78
2022/10/17 00:41:19;;;;;;;19.98;4.45;;;12.20;99.90;;;;;;5033839;28;20265;-78
2022/10/17 00:44:04;;;;;;;51.83;4.93;;;12.30;99.90;;;;;;5033224;28;20190;-78
2022/10/17 00:46:35;;;;;;;40.53;4.25;;;12.30;99.90;;;;;;5032301;28;20285;-78
2022/10/17 00:49:08;;;;;;;114.05;6.32;;;12.30;99.90;;;;;;5033253;28;20175;-78
2022/10/17 00:51:44;;;;;;;62.17;5.10;;;12.20;99.90;;;;;;5032325;28;20642;-78
2022/10/17 00:54:12;;;;;;;57.15;4.95;;;12.20;99.90;;;;;;5032286;28;20641;-78
2022/10/17 00:56:39;;;;;;;105.25;5.75;;;12.20;99.90;;;;;;5033666;28;20195;-78
2022/10/17 00:59:07;;;;;;;59.42;5.00;;;12.20;99.90;;;;;;5032678;28;20282;-78
2022/10/17 01:01:33;;;;;;;61.03;5.25;;;12.00;99.90;;;;;;5032746;28;20175;-78
2022/10/17 01:04:00;;;;;;;32.90;4.82;;;12.10;99.90;;;;;;5033614;28;20179;-78
2022/10/17 01:06:25;;;;;;;37.65;5.85;;;12.00;99.90;;;;;;5031995;28;20194;-78
2022/10/17 01:08:51;;;;;;;18.30;5.07;;;12.10;99.90;;;;;;5032488;28;20753;-78
2022/10/17 01:11:31;;;;;;;52.22;5.10;;;12.10;99.90;;;;;;5032217;28;20178;-78
2022/10/17 01:14:40;;;;;;;59.88;5.78;;;11.90;99.90;;;;;;5032177;28;20167;-78
2022/10/17 01:17:47;;;;;;;28.30;4.40;;;12.00;99.90;;;;;;5032004;28;20202;-78
2022/10/17 01:20:31;;;;;;;18.05;3.60;;;12.00;99.90;;;;;;5035495;28;20296;-78
2022/10/17 01:23:05;;;;;;;28.05;3.90;;;12.00;99.90;;;;;;5037354;28;20243;-78
2022/10/17 01:25:53;;;;;;;50.70;3.60;;;12.00;99.90;;;;;;5035874;28;20182;-78
2022/10/17 01:31:46;;;;;;;24.85;3.97;;;12.00;99.90;;;;;;5037660;28;20164;-78
2022/10/17 01:34:17;;;;;;;33.10;3.80;;;12.00;99.90;;;;;;5036065;28;20639;-78
2022/10/17 01:37:07;;;;;;;44.78;3.97;;;12.00;99.90;;;;;;5036513;28;20199;-78
2022/10/17 01:39:46;;;;;;;38.38;4.13;;;12.00;99.90;;;;;;5036495;28;20171;-77
2022/10/17 01:42:11;;;;;;;130.43;5.30;;;12.00;99.90;;;;;;5035558;28;20163;-77
2022/10/17 01:44:46;;;;;;;91.53;6.22;;;12.10;99.90;;;;;;5036734;28;20167;-77
2022/10/17 01:47:17;;;;;;;77.45;5.20;;;12.10;99.90;;;;;;5035481;28;20291;-78
2022/10/17 01:49:45;;;;;;;66.60;5.57;;;12.10;99.90;;;;;;5036681;28;20167;-77
2022/10/17 01:52:16;;;;;;;27.38;4.88;;;11.90;99.90;;;;;;5036284;28;20224;-77
2022/10/17 01:54:47;;;;;;;16.05;4.35;;;11.90;99.90;;;;;;5035394;28;20178;-77
2022/10/17 01:57:34;;;;;;;56.28;6.07;;;11.70;99.90;;;;;;5035152;28;20743;-78
2022/10/17 02:00:02;;;;;;;20.80;5.05;;;11.70;99.90;;;;;;5036125;28;20269;-78
2022/10/17 02:02:29;;;;;;;58.63;4.95;;;11.70;99.90;;;;;;5036372;28;20250;-78
2022/10/17 02:04:56;;;;;;;15.43;4.53;;;11.60;99.90;;;;;;5035390;28;20194;-78
2022/10/17 02:07:21;;;;;;;8.43;4.15;;;11.60;99.90;;;;;;5035416;28;20288;-78
2022/10/17 02:09:47;;;;;;;6.57;3.83;;;11.70;99.90;;;;;;5035119;28;20229;-78
2022/10/17 02:12:45;;;;;;;9.85;3.30;;;11.60;99.90;;;;;;5034968;28;20174;-78
2022/10/17 02:15:31;;;;;;;5.00;3.33;;;11.60;99.90;;;;;;5036084;28;20186;-78
2022/10/17 02:18:32;;;;;;;4.22;3.60;;;11.60;99.90;;;;;;5035803;28;20167;-78
2022/10/17 02:21:07;;;;;;;5.43;3.42;;;11.60;99.90;;;;;;5034939;28;20167;-78
2022/10/17 02:23:56;;;;;;;18.30;4.68;;;11.60;99.90;;;;;;5035644;28;20602;-78
2022/10/17 02:26:54;;;;;;;15.38;9.20;;;11.60;99.90;;;;;;5034770;28;20199;-78
2022/10/17 02:29:31;;;;;;;29.42;8.02;;;11.70;99.90;;;;;;5034984;28;20664;-78
2022/10/17 02:32:20;;;;;;;18.88;6.30;;;11.60;99.90;;;;;;5035500;28;20170;-78
2022/10/17 02:34:49;;;;;;;29.58;6.45;;;11.60;99.90;;;;;;5034653;28;20521;-77
2022/10/17 02:37:20;;;;;;;30.63;4.47;;;11.60;99.90;;;;;;5035581;28;20676;-78
2022/10/17 02:39:47;;;;;;;37.15;4.75;;;11.50;99.90;;;;;;5034633;28;20206;-78
2022/10/17 02:42:13;;;;;;;3.83;2.90;;;11.40;99.90;;;;;;5035444;28;20218;-78
2022/10/17 02:44:42;;;;;;;4.05;3.17;;;11.30;99.90;;;;;;5034431;28;20179;-78
2022/10/17 02:47:20;;;;;;;7.60;6.13;;;11.30;99.90;;;;;;5034386;28;20215;-78
2022/10/17 02:49:51;;;;;;;9.55;8.70;;;11.40;99.90;;;;;;5034486;28;20182;-78
2022/10/17 02:52:22;;;;;;;8.15;6.15;;;11.30;99.90;;;;;;5035667;28;20175;-77
2022/10/17 02:54:55;;;;;;;6.40;5.80;;;11.30;99.90;;;;;;5034625;28;20559;-77
2022/10/17 02:57:39;;;;;;;8.93;7.13;;;11.40;99.90;;;;;;5034680;28;20210;-78
2022/10/17 03:00:08;;;;;;;5.65;5.20;;;11.40;99.90;;;;;;5034208;28;20175;-78
2022/10/17 03:02:39;;;;;;;6.05;3.90;;;11.40;99.90;;;;;;5035218;28;20183;-78
2022/10/17 03:05:04;;;;;;;16.70;4.57;;;11.30;99.90;;;;;;5035327;28;20183;-77
2022/10/17 03:07:30;;;;;;;14.07;4.15;;;11.30;99.90;;;;;;5033765;28;20207;-78
2022/10/17 03:09:55;;;;;;;6.55;4.15;;;11.20;99.90;;;;;;5034126;28;20179;-78
2022/10/17 03:12:21;;;;;;;5.45;3.28;;;11.20;99.90;;;;;;5034266;28;20183;-77
2022/10/17 03:14:46;;;;;;;4.18;3.35;;;11.20;99.90;;;;;;5033899;28;20641;-77
2022/10/17 03:17:12;;;;;;;39.13;3.38;;;11.20;99.90;;;;;;5034089;28;20202;-78
2022/10/17 03:19:38;;;;;;;3.95;3.15;;;11.20;99.90;;;;;;5033751;28;20181;-78
2022/10/17 03:22:03;;;;;;;3.45;3.25;;;11.10;99.90;;;;;;5035369;28;20178;-78
2022/10/17 03:24:29;;;;;;;5.13;3.13;;;11.10;99.90;;;;;;5033839;28;20190;-78
2022/10/17 03:26:54;;;;;;;16.13;3.38;;;11.10;99.90;;;;;;5033623;28;20195;-78
2022/10/17 03:29:20;;;;;;;10.25;3.70;;;11.10;99.90;;;;;;5034107;28;20544;-78
2022/10/17 03:31:45;;;;;;;13.25;3.50;;;11.10;99.90;;;;;;5036052;28;20175;-78
2022/10/17 03:34:11;;;;;;;24.58;3.25;;;11.10;99.90;;;;;;5034620;28;20213;-78
2022/10/17 03:36:36;;;;;;;16.73;3.50;;;11.20;99.90;;;;;;5034990;28;20245;-78
2022/10/17 03:39:02;;;;;;;16.98;3.10;;;11.20;99.90;;;;;;5035303;28;20193;-78
2022/10/17 03:41:28;;;;;;;6.40;3.15;;;11.20;99.90;;;;;;5033525;28;20182;-78
2022/10/17 03:43:53;;;;;;;27.73;3.13;;;11.20;99.90;;;;;;5034176;28;20285;-78
2022/10/17 03:46:19;;;;;;;10.52;3.25;;;11.20;99.90;;;;;;5034234;28;20231;-78
2022/10/17 03:48:44;;;;;;;75.57;5.20;;;11.10;99.90;;;;;;5034467;28;20198;-78
2022/10/17 03:51:10;;;;;;;28.58;3.30;;;11.10;99.90;;;;;;5034071;28;20230;-78
2022/10/17 03:53:35;;;;;;;17.00;3.47;;;11.00;99.90;;;;;;5034220;28;20205;-78
2022/10/17 03:56:16;;;;;;;13.77;3.35;;;10.90;99.90;;;;;;5035129;28;20197;-78
2022/10/17 03:58:42;;;;;;;30.20;3.33;;;11.00;99.90;;;;;;5033983;28;20199;-78
2022/10/17 04:01:10;;;;;;;31.10;3.60;;;11.00;99.90;;;;;;5033892;28;20175;-78
2022/10/17 04:03:36;;;;;;;47.60;3.80;;;10.90;99.90;;;;;;5033364;28;20179;-77
2022/10/17 04:06:03;;;;;;;39.10;3.47;;;10.90;99.90;;;;;;5032812;28;20209;-78
2022/10/17 04:08:29;;;;;;;38.20;4.13;;;10.80;99.90;;;;;;5033080;28;20202;-77
2022/10/17 04:10:59;;;;;;;15.45;2.80;;;10.70;99.90;;;;;;5034337;28;20278;-77
2022/10/17 04:13:25;;;;;;;7.40;3.38;;;10.70;99.90;;;;;;5032703;28;20232;-77
2022/10/17 04:16:05;;;;;;;2.60;2.40;;;10.80;99.90;;;;;;5032783;28;20285;-77
2022/10/17 04:18:31;;;;;;;14.73;3.03;;;10.80;99.90;;;;;;5034278;28;20170;-77
2022/10/17 04:20:59;;;;;;;63.13;3.92;;;10.70;99.90;;;;;;5032600;28;20557;-77
2022/10/17 04:23:26;;;;;;;35.45;3.63;;;10.70;99.90;;;;;;5033170;28;20183;-77
2022/10/17 04:25:57;;;;;;;21.25;3.33;;;10.70;99.90;;;;;;5032805;28;20209;-77
2022/10/17 04:28:23;;;;;;;7.40;2.85;;;10.70;99.90;;;;;;5032980;28;20198;-77
2022/10/17 04:31:01;;;;;;;38.35;3.65;;;10.70;99.90;;;;;;5033455;28;20175;-77
2022/10/17 04:33:27;;;;;;;8.65;2.85;;;10.70;99.90;;;;;;5033357;28;20175;-77
2022/10/17 04:36:00;;;;;;;17.63;9.35;;;10.70;99.90;;;;;;5032849;28;20221;-78
2022/10/17 04:38:28;;;;;;;11.70;7.25;;;10.70;99.90;;;;;;5033117;28;20224;-78
2022/10/17 04:40:55;;;;;;;6.38;2.72;;;10.70;99.90;;;;;;5032786;28;20185;-78
2022/10/17 04:43:21;;;;;;;7.13;6.43;;;10.40;99.90;;;;;;5033078;28;20521;-78
2022/10/17 04:45:47;;;;;;;11.85;10.73;;;10.40;99.90;;;;;;5034136;28;20198;-78
2022/10/17 04:48:28;;;;;;;10.73;9.73;;;10.40;99.90;;;;;;5032596;28;20226;-78
2022/10/17 04:50:55;;;;;;;12.73;11.50;;;10.50;99.90;;;;;;5034706;28;20178;-77
2022/10/17 04:53:22;;;;;;;11.40;10.40;;;10.60;99.90;;;;;;5032514;28;20550;-78
2022/10/17 04:55:47;;;;;;;6.80;6.20;;;10.50;99.90;;;;;;5032226;28;20241;-78
2022/10/17 04:58:13;;;;;;;5.05;4.70;;;10.60;99.90;;;;;;5032645;28;20222;-78
2022/10/17 05:00:38;;;;;;;5.88;5.30;;;10.60;99.90;;;;;;5032526;28;20210;-78
2022/10/17 05:03:04;;;;;;;6.35;4.60;;;10.60;99.90;;;;;;5032722;28;20198;-79
2022/10/17 05:05:30;;;;;;;5.53;3.90;;;10.60;99.90;;;;;;5032656;28;20184;-79
2022/10/17 05:07:56;;;;;;;9.85;3.92;;;10.60;99.90;;;;;;5032248;28;20260;-78
2022/10/17 05:10:21;;;;;;;7.30;4.60;;;10.70;99.90;;;;;;5032300;28;20197;-78
2022/10/17 05:12:48;;;;;;;24.85;3.95;;;10.70;99.90;;;;;;5032250;28;20260;-78
2022/10/17 05:15:13;;;;;;;6.80;3.08;;;10.70;99.90;;;;;;5032468;28;20171;-78
2022/10/17 05:17:39;;;;;;;9.45;3.60;;;10.70;99.90;;;;;;5032537;28;20348;-78
2022/10/17 05:20:05;;;;;;;16.23;5.13;;;10.80;99.90;;;;;;5032126;28;20645;-78
2022/10/17 05:22:31;;;;;;;9.27;6.05;;;10.80;99.90;;;;;;5032620;28;20285;-78
2022/10/17 05:24:56;;;;;;;21.67;14.80;;;10.80;99.90;;;;;;5033045;28;20200;-78
2022/10/17 05:27:22;;;;;;;31.50;13.75;;;10.90;99.90;;;;;;5032242;28;20269;-78
2022/10/17 05:29:47;;;;;;;70.45;53.08;;;10.70;99.90;;;;;;5032403;28;20175;-78
2022/10/17 05:32:14;;;;;;;35.45;6.72;;;10.60;99.90;;;;;;5032808;28;20566;-78
2022/10/17 05:34:40;;;;;;;28.65;4.45;;;10.60;99.90;;;;;;5032683;28;20215;-78
2022/10/17 05:37:05;;;;;;;27.17;4.53;;;10.60;99.90;;;;;;5032426;28;20198;-78
2022/10/17 05:39:31;;;;;;;17.73;4.20;;;10.80;99.90;;;;;;5033508;28;20186;-78
2022/10/17 05:41:56;;;;;;;28.70;4.90;;;10.80;99.90;;;;;;5032094;28;20227;-78
2022/10/17 05:44:22;;;;;;;38.20;8.20;;;10.80;99.90;;;;;;5032155;28;20179;-78
2022/10/17 05:46:55;;;;;;;44.72;9.55;;;10.70;99.90;;;;;;5031755;28;20207;-78
2022/10/17 05:49:34;;;;;;;49.85;15.52;;;10.70;99.90;;;;;;5033041;28;20164;-78
2022/10/17 05:52:02;;;;;;;54.90;13.48;;;10.70;99.90;;;;;;5032310;28;20174;-78
2022/10/17 05:54:28;;;;;;;59.58;11.85;;;10.60;99.90;;;;;;5032436;28;20175;-78
2022/10/17 05:56:54;;;;;;;47.20;9.25;;;10.60;99.90;;;;;;5030772;28;20207;-78
2022/10/17 05:59:20;;;;;;;88.53;8.65;;;10.50;99.90;;;;;;5030181;28;20172;-78
2022/10/17 06:01:46;;;;;;;49.40;7.13;;;10.60;99.90;;;;;;5029852;28;20179;-78
2022/10/17 06:04:12;;;;;;;77.22;6.68;;;10.60;99.90;;;;;;5030140;28;20326;-78
2022/10/17 06:06:38;;;;;;;17.83;5.90;;;10.60;99.90;;;;;;5033350;28;20759;-78
2022/10/17 06:09:04;;;;;;;121.95;7.75;;;10.70;99.90;;;;;;5033245;28;20218;-78
2022/10/17 06:11:30;;;;;;;21.85;6.25;;;10.80;99.90;;;;;;5035699;28;20179;-78
2022/10/17 06:13:56;;;;;;;65.10;10.38;;;10.90;99.90;;;;;;5035129;28;20182;-78
2022/10/17 06:16:21;;;;;;;12.38;8.38;;;10.80;99.90;;;;;;5035533;28;20195;-78
2022/10/17 06:18:47;;;;;;;19.30;8.02;;;10.80;99.90;;;;;;5035012;28;20256;-78
2022/10/17 06:21:17;;;;;;;9.23;6.78;;;10.70;99.90;;;;;;5035406;28;20187;-79
2022/10/17 06:23:43;;;;;;;6.32;5.72;;;10.70;99.90;;;;;;5035464;28;20183;-78
2022/10/17 06:26:09;;;;;;;6.55;4.13;;;10.70;99.90;;;;;;5034820;28;20293;-78
2022/10/17 06:28:35;;;;;;;7.65;3.83;;;10.70;99.90;;;;;;5035149;28;20261;-78
2022/10/17 06:31:10;;;;;;;14.55;3.63;;;10.80;99.90;;;;;;5035291;28;20226;-78
2022/10/17 06:33:36;;;;;;;5.60;2.90;;;10.80;99.90;;;;;;5035045;28;20542;-78
2022/10/17 06:36:04;;;;;;;4.05;2.83;;;10.80;99.90;;;;;;5035127;28;20190;-78
2022/10/17 06:38:30;;;;;;;73.10;4.38;;;10.90;99.90;;;;;;5034952;28;20532;-78
2022/10/17 06:41:07;;;;;;;43.28;4.70;;;10.90;99.90;;;;;;5036364;28;20174;-78
2022/10/17 06:43:34;;;;;;;13.80;3.05;;;10.90;99.90;;;;;;5034533;28;20195;-78
2022/10/17 06:46:00;;;;;;;49.50;4.18;;;10.90;99.90;;;;;;5035581;28;20749;-78
2022/10/17 06:48:25;;;;;;;123.10;5.30;;;10.90;99.90;;;;;;5034407;28;20293;-78
2022/10/17 06:50:51;;;;;;;23.00;4.25;;;10.80;99.90;;;;;;5034719;28;20178;-78
2022/10/17 06:53:16;;;;;;;4.35;2.97;;;10.90;99.90;;;;;;5035582;28;20228;-78
2022/10/17 06:55:42;;;;;;;4.53;3.03;;;11.00;99.90;;;;;;5035389;28;20174;-78
2022/10/17 06:58:11;;;;;;;3.05;2.70;;;11.10;99.90;;;;;;5035371;28;20679;-78
2022/10/17 07:00:36;;;;;;;3.00;2.80;;;11.10;99.90;;;;;;5034329;28;20171;-78
2022/10/17 07:03:09;;;;;;;33.28;3.60;;;11.10;99.90;;;;;;5034662;28;20233;-78
2022/10/17 07:06:02;;;;;;;14.52;3.45;;;11.20;99.90;;;;;;5034986;28;20179;-78
2022/10/17 07:08:27;;;;;;;11.55;3.53;;;11.40;99.90;;;;;;5034710;28;20199;-78
2022/10/17 07:10:54;;;;;;;29.48;4.25;;;11.50;99.90;;;;;;5034004;28;20182;-78
2022/10/17 07:13:29;;;;;;;41.22;8.48;;;11.60;99.90;;;;;;5034203;28;20253;-78
2022/10/17 07:16:00;;;;;;;11.90;8.20;;;11.80;99.90;;;;;;5033927;28;20673;-78
2022/10/17 07:18:26;;;;;;;7.60;5.75;;;11.90;99.90;;;;;;5033935;28;20257;-78
2022/10/17 07:20:53;;;;;;;6.57;4.22;;;12.20;99.90;;;;;;5033979;28;20743;-78
2022/10/17 07:23:19;;;;;;;9.32;4.40;;;12.40;99.90;;;;;;5033807;28;20680;-78
2022/10/17 07:25:45;;;;;;;15.95;4.55;;;12.60;99.90;;;;;;5034525;28;20190;-77
2022/10/17 07:28:10;;;;;;;21.58;5.20;;;12.80;99.90;;;;;;5033887;28;20207;-78
2022/10/17 07:30:36;;;;;;;8.23;4.32;;;12.90;99.90;;;;;;5033704;28;20182;-78
2022/10/17 07:33:01;;;;;;;20.60;3.97;;;13.00;99.90;;;;;;5034412;28;20175;-78
2022/10/17 07:35:27;;;;;;;13.05;4.07;;;13.20;99.90;;;;;;5035325;28;20175;-78
2022/10/17 07:37:52;;;;;;;48.50;4.07;;;13.30;99.90;;;;;;5034016;28;20179;-78
2022/10/17 07:40:18;;;;;;;16.77;3.97;;;13.30;99.90;;;;;;5034486;28;20183;-78
2022/10/17 07:42:43;;;;;;;46.70;4.78;;;13.40;99.90;;;;;;5034031;28;20250;-78
2022/10/17 07:45:09;;;;;;;96.45;5.20;;;13.40;99.90;;;;;;5034250;28;20698;-78
2022/10/17 07:47:35;;;;;;;54.13;4.78;;;13.40;99.90;;;;;;5034205;28;20613;-79
2022/10/17 07:50:04;;;;;;;17.45;4.65;;;13.20;99.90;;;;;;5033782;28;20182;-79
2022/10/17 07:52:30;;;;;;;27.48;4.35;;;13.30;99.90;;;;;;5033577;28;20178;-79
2022/10/17 07:55:00;;;;;;;17.75;4.28;;;13.50;99.90;;;;;;5034311;28;20232;-79
2022/10/17 07:57:25;;;;;;;22.70;4.35;;;13.50;99.90;;;;;;5034041;28;20226;-78
2022/10/17 07:59:53;;;;;;;61.15;5.93;;;13.60;99.90;;;;;;5033960;28;20179;-79
2022/10/17 08:02:26;;;;;;;17.67;4.57;;;13.70;99.90;;;;;;5033939;28;20183;-79
2022/10/17 08:04:52;;;;;;;13.60;4.72;;;13.80;99.90;;;;;;5034046;28;20175;-80
2022/10/17 08:07:19;;;;;;;25.60;4.72;;;14.00;99.90;;;;;;5033775;28;20207;-79
2022/10/17 08:09:45;;;;;;;14.25;4.53;;;14.20;99.90;;;;;;5034304;28;20656;-80
2022/10/17 08:12:13;;;;;;;4.00;3.65;;;14.30;99.90;;;;;;5033724;28;20183;-79
2022/10/17 08:14:39;;;;;;;3.53;3.33;;;14.30;99.90;;;;;;5034272;28;20175;-80
2022/10/17 08:17:04;;;;;;;12.98;3.70;;;14.30;99.90;;;;;;5034060;28;20206;-79
2022/10/17 08:19:30;;;;;;;9.40;3.95;;;14.40;99.90;;;;;;5033837;28;20182;-79
2022/10/17 08:22:17;;;;;;;16.75;4.30;;;14.60;99.90;;;;;;5034307;28;20179;-80
2022/10/17 08:24:45;;;;;;;3.85;3.55;;;14.70;99.90;;;;;;5035689;28;20173;-79
2022/10/17 08:27:12;;;;;;;4.75;4.40;;;14.90;99.90;;;;;;5035522;28;20230;-79
2022/10/17 08:29:39;;;;;;;10.50;4.10;;;15.10;99.90;;;;;;5033558;28;20182;-80
2022/10/17 08:32:06;;;;;;;5.43;4.20;;;15.20;99.90;;;;;;5034059;28;20182;-78
2022/10/17 08:34:32;;;;;;;4.03;3.70;;;15.20;99.90;;;;;;5033597;28;20186;-78
2022/10/17 08:36:57;;;;;;;5.05;4.00;;;15.40;99.90;;;;;;5033744;28;20224;-78
2022/10/17 08:39:23;;;;;;;6.65;4.53;;;15.60;99.90;;;;;;5035008;28;20181;-78
2022/10/17 08:42:04;;;;;;;5.38;4.88;;;15.70;99.90;;;;;;5033327;28;20186;-78
2022/10/17 08:44:41;;;;;;;9.80;5.30;;;15.70;99.90;;;;;;5033831;28;20182;-78
2022/10/17 08:47:20;;;;;;;7.03;4.82;;;15.80;99.90;;;;;;5034250;28;20199;-78
2022/10/17 08:49:56;;;;;;;9.35;5.30;;;15.80;99.90;;;;;;5033091;28;20629;-79
2022/10/17 08:52:59;;;;;;;6.30;5.25;;;15.60;99.90;;;;;;5033701;28;20637;-79
2022/10/17 08:55:35;;;;;;;11.82;5.88;;;15.70;99.90;;;;;;5034542;28;20170;-80
2022/10/17 08:58:00;;;;;;;6.13;5.63;;;15.70;99.90;;;;;;5033515;28;20336;-79
2022/10/17 09:00:29;;;;;;;6.22;5.53;;;15.70;99.90;;;;;;5034773;28;20194;-79
2022/10/17 09:03:08;;;;;;;11.70;6.82;;;15.70;99.90;;;;;;5033129;28;20334;-79
2022/10/17 09:05:48;;;;;;;15.73;7.45;;;15.50;99.90;;;;;;5034892;28;20170;-79
2022/10/17 09:08:34;;;;;;;8.75;6.38;;;15.30;99.90;;;;;;5033601;28;20206;-79
2022/10/17 09:11:13;;;;;;;6.38;5.60;;;15.40;99.90;;;;;;5033404;28;20167;-79
2022/10/17 09:14:17;;;;;;;11.88;6.22;;;15.50;99.90;;;;;;5033114;28;20174;-79
2022/10/17 09:17:00;;;;;;;7.28;6.60;;;15.60;99.90;;;;;;5022832;28;20198;-79
2022/10/17 09:19:36;;;;;;;7.10;6.45;;;15.80;99.90;;;;;;5033436;28;20182;-79
2022/10/17 09:22:12;;;;;;;7.32;6.40;;;15.90;99.90;;;;;;5034114;28;20178;-79
2022/10/17 09:24:46;;;;;;;7.35;6.20;;;16.10;99.90;;;;;;5032849;28;20181;-79
2022/10/17 09:27:30;;;;;;;6.68;6.03;;;16.00;99.90;;;;;;5034737;28;20572;-79
2022/10/17 09:30:14;;;;;;;6.95;6.35;;;16.00;99.90;;;;;;5033870;28;20182;-79
2022/10/17 09:32:41;;;;;;;6.20;5.65;;;16.00;99.90;;;;;;5033065;28;20721;-79
2022/10/17 09:35:13;;;;;;;6.72;5.97;;;16.00;99.90;;;;;;5032441;28;20633;-79
2022/10/17 09:37:39;;;;;;;6.72;6.07;;;16.00;99.90;;;;;;5032172;28;20195;-79
2022/10/17 09:40:07;;;;;;;5.60;5.10;;;16.10;99.90;;;;;;5033503;28;20178;-79
2022/10/17 09:42:34;;;;;;;6.70;6.20;;;16.20;99.90;;;;;;5036059;28;20179;-79
2022/10/17 09:45:00;;;;;;;6.72;6.13;;;16.20;99.90;;;;;;5037269;28;20236;-79
2022/10/17 09:47:38;;;;;;;6.57;5.97;;;16.30;99.90;;;;;;5036034;28;20199;-79
2022/10/17 09:50:14;;;;;;;7.20;6.45;;;16.40;99.90;;;;;;5035790;28;20174;-79
2022/10/17 09:52:46;;;;;;;6.60;6.00;;;16.50;99.90;;;;;;5036999;28;20178;-79
2022/10/17 09:55:24;;;;;;;6.28;5.70;;;16.50;99.90;;;;;;5036003;28;20645;-79
2022/10/17 09:57:56;;;;;;;9.88;5.15;;;16.60;99.90;;;;;;5035557;28;20222;-79
2022/10/17 10:00:24;;;;;;;6.00;5.50;;;16.60;99.90;;;;;;5035977;28;20175;-79
2022/10/17 10:02:50;;;;;;;6.03;5.50;;;16.70;99.90;;;;;;5037174;28;20270;-79
2022/10/17 10:05:28;;;;;;;6.00;5.57;;;16.70;99.90;;;;;;5035724;28;20329;-83
2022/10/17 10:08:16;;;;;;;5.85;5.40;;;16.80;99.90;;;;;;5018147;28;20195;-77
2022/10/17 10:10:43;;;;;;;6.60;6.00;;;16.90;99.90;;;;;;5035562;28;20163;-78
2022/10/17 10:13:12;;;;;;;5.95;5.32;;;17.10;99.90;;;;;;5036310;28;20206;-78
2022/10/17 10:15:45;;;;;;;5.65;5.10;;;17.20;99.90;;;;;;5034795;28;20171;-78
2022/10/17 10:18:30;;;;;;;6.70;5.25;;;17.30;99.90;;;;;;5016580;28;20243;-78
2022/10/17 10:21:15;;;;;;;5.80;4.85;;;17.40;99.90;;;;;;5019567;28;20175;-78
2022/10/17 10:23:43;;;;;;;9.48;5.40;;;17.40;99.90;;;;;;5035058;28;20212;-78
2022/10/17 10:26:24;;;;;;;6.97;5.43;;;17.50;99.90;;;;;;5034413;28;20206;-78
2022/10/17 10:28:56;;;;;;;5.38;4.88;;;17.70;99.90;;;;;;5035097;28;20195;-78
2022/10/17 10:31:32;;;;;;;5.65;5.15;;;17.70;99.90;;;;;;5034701;28;20182;-78
2022/10/17 10:34:00;;;;;;;5.25;4.75;;;17.80;99.90;;;;;;5035301;28;20249;-78
2022/10/17 10:36:49;;;;;;;6.07;4.72;;;17.90;99.90;;;;;;5035770;28;20723;-78
2022/10/17 10:39:33;;;;;;;5.40;4.82;;;18.00;99.90;;;;;;5036091;28;20187;-78
2022/10/17 10:42:01;;;;;;;10.73;5.13;;;18.00;99.90;;;;;;5035241;28;20281;-78
2022/10/17 10:44:29;;;;;;;5.35;4.57;;;18.10;99.90;;;;;;5034964;28;20217;-78
2022/10/17 10:47:20;;;;;;;6.05;4.40;;;18.20;99.90;;;;;;5034483;28;20302;-78
2022/10/17 10:49:46;;;;;;;8.27;4.40;;;18.30;99.90;;;;;;5035530;28;20182;-78
2022/10/17 10:52:28;;;;;;;5.25;4.80;;;18.50;99.90;;;;;;5034589;28;20189;-78
2022/10/17 10:55:19;;;;;;;4.90;4.50;;;18.50;99.90;;;;;;5035127;28;20182;-78
2022/10/17 10:57:49;;;;;;;8.55;4.82;;;18.70;99.90;;;;;;5035683;28;20688;-78
2022/10/17 11:00:21;;;;;;;5.00;4.53;;;18.70;99.90;;;;;;5035616;28;20179;-78
2022/10/17 11:03:00;;;;;;;5.53;4.65;;;18.90;99.90;;;;;;5034706;28;20183;-78
2022/10/17 11:05:38;;;;;;;6.05;5.45;;;19.00;99.90;;;;;;5034521;28;20174;-78
2022/10/17 11:08:19;;;;;;;6.13;5.53;;;19.10;99.90;;;;;;5035533;28;20220;-78
2022/10/17 11:11:17;;;;;;;7.07;5.43;;;19.00;99.90;;;;;;5034286;28;20691;-78
2022/10/17 11:14:19;;;;;;;6.20;5.70;;;18.90;99.90;;;;;;5034416;28;20522;-78
2022/10/17 11:17:07;;;;;;;5.47;5.00;;;18.80;99.90;;;;;;5034039;28;20199;-78
2022/10/17 11:19:45;;;;;;;5.88;5.30;;;18.90;99.90;;;;;;5035360;28;20178;-78
2022/10/17 11:22:36;;;;;;;5.70;5.30;;;18.80;99.90;;;;;;5035267;28;20260;-78
2022/10/17 11:25:11;;;;;;;7.47;5.82;;;18.80;99.90;;;;;;5033622;28;20264;-78
2022/10/17 11:27:37;;;;;;;6.00;5.50;;;18.80;99.90;;;;;;5034115;28;20209;-78
2022/10/17 11:30:04;;;;;;;5.90;5.30;;;18.70;99.90;;;;;;5033780;28;20175;-78
2022/10/17 11:32:33;;;;;;;5.80;5.30;;;18.60;99.90;;;;;;5034952;28;20249;-79
2022/10/17 11:35:23;;;;;;;7.55;6.07;;;18.60;99.90;;;;;;5033922;28;20179;-80
2022/10/17 11:37:59;;;;;;;9.90;5.55;;;18.50;99.90;;;;;;5033849;28;20583;-79
2022/10/17 11:40:37;;;;;;;10.15;5.78;;;18.50;99.90;;;;;;5035239;28;20194;-80
2022/10/17 11:43:11;;;;;;;6.00;5.50;;;18.50;99.90;;;;;;5035515;28;20642;-79
2022/10/17 11:45:43;;;;;;;6.22;5.63;;;18.50;99.90;;;;;;5034646;28;20194;-79
2022/10/17 11:48:16;;;;;;;7.38;5.10;;;18.50;99.90;;;;;;5034200;28;20198;-79
2022/10/17 11:50:46;;;;;;;7.90;5.28;;;18.50;99.90;;;;;;5034382;28;20217;-79
2022/10/17 11:53:17;;;;;;;6.90;5.82;;;18.60;99.90;;;;;;5033785;28;20221;-79
2022/10/17 11:55:44;;;;;;;8.13;5.30;;;18.50;99.90;;;;;;5033842;28;20167;-79
2022/10/17 11:58:22;;;;;;;6.07;5.30;;;18.50;99.90;;;;;;5033508;28;20213;-79
2022/10/17 12:01:01;;;;;;;5.57;5.05;;;18.60;99.90;;;;;;5033668;28;20246;-79
2022/10/17 12:04:12;;;;;;;5.93;5.32;;;18.60;99.90;;;;;;5032383;28;20175;-79
2022/10/17 12:07:16;;;;;;;5.25;4.85;;;18.50;99.90;;;;;;5032513;28;20282;-79
2022/10/17 12:09:53;;;;;;;5.57;4.82;;;18.50;99.90;;;;;;5015707;28;20716;-79
2022/10/17 12:12:25;;;;;;;5.28;4.78;;;18.60;99.90;;;;;;5033976;28;20195;-79
2022/10/17 12:14:52;;;;;;;9.27;5.05;;;18.70;99.90;;;;;;5033317;28;20210;-79
2022/10/17 12:17:43;;;;;;;5.40;4.90;;;18.80;99.90;;;;;;5033147;28;20290;-79
2022/10/17 12:20:24;;;;;;;4.60;4.20;;;18.80;99.90;;;;;;5033736;28;20206;-79
2022/10/17 12:22:52;;;;;;;5.93;4.43;;;18.90;99.90;;;;;;5033735;28;20237;-79
2022/10/17 12:25:25;;;;;;;8.55;4.90;;;19.00;99.90;;;;;;5032747;28;20181;-80
2022/10/17 12:28:14;;;;;;;6.60;4.45;;;19.10;99.90;;;;;;5032737;28;20289;-79
2022/10/17 12:30:59;;;;;;;4.65;4.18;;;19.20;99.90;;;;;;5032570;28;20202;-79
2022/10/17 12:33:35;;;;;;;5.82;4.72;;;19.30;99.90;;;;;;5031744;28;20178;-79
2022/10/17 12:36:25;;;;;;;4.93;4.32;;;19.30;99.90;;;;;;5031674;28;20256;-80
2022/10/17 12:39:00;;;;;;;4.60;4.20;;;19.30;99.90;;;;;;5031842;28;20328;-79
2022/10/17 12:41:38;;;;;;;4.97;4.30;;;19.30;99.90;;;;;;5032637;28;20173;-79
2022/10/17 12:44:12;;;;;;;5.88;4.18;;;19.30;99.90;;;;;;5013065;28;20182;-79
2022/10/17 12:46:50;;;;;;;4.35;4.05;;;19.30;99.90;;;;;;5015452;28;20203;-79
2022/10/17 12:49:38;;;;;;;7.15;4.30;;;19.30;99.90;;;;;;5033708;28;20202;-79
2022/10/17 12:52:30;;;;;;;6.55;4.47;;;19.30;99.90;;;;;;5032289;28;20183;-79
2022/10/17 12:55:09;;;;;;;5.10;4.10;;;19.30;99.90;;;;;;5033905;28;20225;-79
2022/10/17 12:58:02;;;;;;;6.10;3.70;;;19.30;99.90;;;;;;5032373;28;20210;-79
2022/10/17 13:00:40;;;;;;;7.95;4.13;;;19.20;99.90;;;;;;5032766;28;20179;-79
2022/10/17 13:03:15;;;;;;;5.13;4.10;;;19.30;99.90;;;;;;5032172;28;20661;-79
2022/10/17 13:06:14;;;;;;;7.97;4.55;;;19.30;99.90;;;;;;5033940;28;20248;-79
2022/10/17 13:08:44;;;;;;;8.73;5.10;;;19.40;99.90;;;;;;5032421;28;20203;-79
2022/10/17 13:11:12;;;;;;;5.03;4.53;;;19.40;99.90;;;;;;5031530;28;20182;-79